sensor_id;sensor_type;location;lat;lon;timestamp;temperature;humidity
16881;DHT22;8557;52.068;5.198;2023-01-04T00:01:33;9.10;99.90
16881;DHT22;8557;52.068;5.198;2023-01-04T00:04:00;9.10;99.90
16881;DHT22;8557;52.068;5.198;2023-01-04T00:06:27;9.10;99.90
16881;DHT22;8557;52.068;5.198;2023-01-04T00:08:54;9.10;99.90
16881;DHT22;8557;52.068;5.198;2023-01-04T00:11:22;9.10;99.90
16881;DHT22;8557;52.068;5.198;2023-01-04T00:13:50;9.10;99.90
16881;DHT22;8557;52.068;5.198;2023-01-04T00:16:20;9.10;99.90
16881;DHT22;8557;52.068;5.198;2023-01-04T00:18:47;9.00;99.90
16881;DHT22;8557;52.068;5.198;2023-01-04T00:21:16;9.00;99.90
16881;DHT22;8557;52.068;5.198;2023-01-04T00:23:44;9.00;99.90
16881;DHT22;8557;52.068;5.198;2023-01-04T00:26:12;9.00;99.90
16881;DHT22;8557;52.068;5.198;2023-01-04T00:28:40;9.00;99.90
16881;DHT22;8557;52.068;5.198;2023-01-04T00:31:10;9.00;99.90
16881;DHT22;8557;52.068;5.198;2023-01-04T00:33:39;9.00;99.90
16881;DHT22;8557;52.068;5.198;2023-01-04T00:36:07;9.00;99.90
16881;DHT22;8557;52.068;5.198;2023-01-04T00:38:35;9.00;99.90
16881;DHT22;8557;52.068;5.198;2023-01-04T00:41:03;9.00;99.90
16881;DHT22;8557;52.068;5.198;2023-01-04T00:43:30;9.00;99.90
16881;DHT22;8557;52.068;5.198;2023-01-04T00:45:57;9.00;99.90
16881;DHT22;8557;52.068;5.198;2023-01-04T00:48:26;9.00;99.90
16881;DHT22;8557;52.068;5.198;2023-01-04T00:50:54;9.00;99.90
16881;DHT22;8557;52.068;5.198;2023-01-04T00:53:21;9.10;99.90
16881;DHT22;8557;52.068;5.198;2023-01-04T00:55:48;9.00;99.90
16881;DHT22;8557;52.068;5.198;2023-01-04T00:58:14;9.10;99.90
16881;DHT22;8557;52.068;5.198;2023-01-04T01:00:41;9.10;99.90
16881;DHT22;8557;52.068;5.198;2023-01-04T01:03:08;9.10;99.90
16881;DHT22;8557;52.068;5.198;2023-01-04T01:05:35;9.10;99.90
16881;DHT22;8557;52.068;5.198;2023-01-04T01:08:04;9.10;99.90
16881;DHT22;8557;52.068;5.198;2023-01-04T01:10:44;9.10;99.90
16881;DHT22;8557;52.068;5.198;2023-01-04T01:13:11;9.20;99.90
16881;DHT22;8557;52.068;5.198;2023-01-04T01:15:38;9.10;99.90
16881;DHT22;8557;52.068;5.198;2023-01-04T01:18:05;9.20;99.90
16881;DHT22;8557;52.068;5.198;2023-01-04T01:20:31;9.20;99.90
16881;DHT22;8557;52.068;5.198;2023-01-04T01:22:58;9.20;99.90
16881;DHT22;8557;52.068;5.198;2023-01-04T01:25:26;9.20;99.90
16881;DHT22;8557;52.068;5.198;2023-01-04T01:27:53;9.20;99.90
16881;DHT22;8557;52.068;5.198;2023-01-04T01:30:20;9.30;99.90
16881;DHT22;8557;52.068;5.198;2023-01-04T01:32:46;9.30;99.90
16881;DHT22;8557;52.068;5.198;2023-01-04T01:35:13;9.40;99.90
16881;DHT22;8557;52.068;5.198;2023-01-04T01:37:40;9.30;99.90
16881;DHT22;8557;52.068;5.198;2023-01-04T01:40:08;9.40;99.90
16881;DHT22;8557;52.068;5.198;2023-01-04T01:42:36;9.40;99.90
16881;DHT22;8557;52.068;5.198;2023-01-04T01:45:05;9.40;99.90
16881;DHT22;8557;52.068;5.198;2023-01-04T01:47:40;9.50;99.90
16881;DHT22;8557;52.068;5.198;2023-01-04T01:50:15;9.50;99.90
16881;DHT22;8557;52.068;5.198;2023-01-04T01:52:44;9.50;99.90
16881;DHT22;8557;52.068;5.198;2023-01-04T01:55:12;9.60;99.90
16881;DHT22;8557;52.068;5.198;2023-01-04T01:57:42;9.60;99.90
16881;DHT22;8557;52.068;5.198;2023-01-04T02:00:12;9.60;99.90
16881;DHT22;8557;52.068;5.198;2023-01-04T02:02:42;9.70;99.90
16881;DHT22;8557;52.068;5.198;2023-01-04T02:05:10;9.70;99.90
16881;DHT22;8557;52.068;5.198;2023-01-04T02:07:38;9.70;99.90
16881;DHT22;8557;52.068;5.198;2023-01-04T02:10:05;9.70;99.90
16881;DHT22;8557;52.068;5.198;2023-01-04T02:12:32;9.70;99.90
16881;DHT22;8557;52.068;5.198;2023-01-04T02:15:02;9.70;99.90
16881;DHT22;8557;52.068;5.198;2023-01-04T02:17:35;9.80;99.90
16881;DHT22;8557;52.068;5.198;2023-01-04T02:23:59;9.90;99.90
16881;DHT22;8557;52.068;5.198;2023-01-04T02:27:08;9.90;99.90
16881;DHT22;8557;52.068;5.198;2023-01-04T02:30:13;9.90;99.90
16881;DHT22;8557;52.068;5.198;2023-01-04T02:32:54;10.00;99.90
16881;DHT22;8557;52.068;5.198;2023-01-04T02:35:27;10.00;99.90
16881;DHT22;8557;52.068;5.198;2023-01-04T02:38:01;10.00;99.90
16881;DHT22;8557;52.068;5.198;2023-01-04T02:40:37;10.00;99.90
16881;DHT22;8557;52.068;5.198;2023-01-04T02:43:15;10.10;99.90
16881;DHT22;8557;52.068;5.198;2023-01-04T02:46:07;10.10;99.90
16881;DHT22;8557;52.068;5.198;2023-01-04T02:48:37;10.10;99.90
16881;DHT22;8557;52.068;5.198;2023-01-04T02:51:26;10.20;99.90
16881;DHT22;8557;52.068;5.198;2023-01-04T02:53:54;10.20;99.90
16881;DHT22;8557;52.068;5.198;2023-01-04T02:56:27;10.20;99.90
16881;DHT22;8557;52.068;5.198;2023-01-04T02:59:11;10.20;99.90
16881;DHT22;8557;52.068;5.198;2023-01-04T03:01:44;10.20;99.90
16881;DHT22;8557;52.068;5.198;2023-01-04T03:04:48;10.30;99.90
16881;DHT22;8557;52.068;5.198;2023-01-04T03:07:38;10.30;99.90
16881;DHT22;8557;52.068;5.198;2023-01-04T03:10:08;10.40;99.90
16881;DHT22;8557;52.068;5.198;2023-01-04T03:12:42;10.40;99.90
16881;DHT22;8557;52.068;5.198;2023-01-04T03:15:11;10.40;99.90
16881;DHT22;8557;52.068;5.198;2023-01-04T03:17:43;10.40;99.90
16881;DHT22;8557;52.068;5.198;2023-01-04T03:20:13;10.40;99.90
16881;DHT22;8557;52.068;5.198;2023-01-04T03:22:43;10.40;99.90
16881;DHT22;8557;52.068;5.198;2023-01-04T03:25:32;10.50;99.90
16881;DHT22;8557;52.068;5.198;2023-01-04T03:28:20;10.50;99.90
16881;DHT22;8557;52.068;5.198;2023-01-04T03:31:11;10.50;99.90
16881;DHT22;8557;52.068;5.198;2023-01-04T03:33:56;10.60;99.90
16881;DHT22;8557;52.068;5.198;2023-01-04T03:36:55;10.50;99.90
16881;DHT22;8557;52.068;5.198;2023-01-04T03:39:33;10.60;99.90
16881;DHT22;8557;52.068;5.198;2023-01-04T03:42:21;10.60;99.90
16881;DHT22;8557;52.068;5.198;2023-01-04T03:45:14;10.60;99.90
16881;DHT22;8557;52.068;5.198;2023-01-04T03:48:04;10.60;99.90
16881;DHT22;8557;52.068;5.198;2023-01-04T03:50:53;10.70;99.90
16881;DHT22;8557;52.068;5.198;2023-01-04T03:53:24;10.80;99.90
16881;DHT22;8557;52.068;5.198;2023-01-04T03:55:53;10.80;99.90
16881;DHT22;8557;52.068;5.198;2023-01-04T03:58:21;10.80;99.90
16881;DHT22;8557;52.068;5.198;2023-01-04T04:00:48;10.90;99.90
16881;DHT22;8557;52.068;5.198;2023-01-04T04:03:15;10.80;99.90
16881;DHT22;8557;52.068;5.198;2023-01-04T04:05:43;10.80;99.90
16881;DHT22;8557;52.068;5.198;2023-01-04T04:08:30;10.90;99.90
16881;DHT22;8557;52.068;5.198;2023-01-04T04:10:58;10.90;99.90
16881;DHT22;8557;52.068;5.198;2023-01-04T04:13:46;10.90;99.90
16881;DHT22;8557;52.068;5.198;2023-01-04T04:16:15;11.00;99.90
16881;DHT22;8557;52.068;5.198;2023-01-04T04:18:42;11.00;99.90
16881;DHT22;8557;52.068;5.198;2023-01-04T04:21:09;11.00;99.90
16881;DHT22;8557;52.068;5.198;2023-01-04T04:23:37;11.00;99.90
16881;DHT22;8557;52.068;5.198;2023-01-04T04:26:04;11.00;99.90
16881;DHT22;8557;52.068;5.198;2023-01-04T04:28:30;11.00;99.90
16881;DHT22;8557;52.068;5.198;2023-01-04T04:30:57;11.10;99.90
16881;DHT22;8557;52.068;5.198;2023-01-04T04:33:24;11.10;99.90
16881;DHT22;8557;52.068;5.198;2023-01-04T04:35:52;11.10;99.90
16881;DHT22;8557;52.068;5.198;2023-01-04T04:38:20;11.10;99.90
16881;DHT22;8557;52.068;5.198;2023-01-04T04:40:48;11.10;99.90
16881;DHT22;8557;52.068;5.198;2023-01-04T04:43:35;11.10;99.90
16881;DHT22;8557;52.068;5.198;2023-01-04T04:46:02;11.10;99.90
16881;DHT22;8557;52.068;5.198;2023-01-04T04:48:29;11.20;99.90
16881;DHT22;8557;52.068;5.198;2023-01-04T04:50:55;11.20;99.90
16881;DHT22;8557;52.068;5.198;2023-01-04T04:53:22;11.20;99.90
16881;DHT22;8557;52.068;5.198;2023-01-04T04:55:51;11.20;99.90
16881;DHT22;8557;52.068;5.198;2023-01-04T04:58:19;11.20;99.90
16881;DHT22;8557;52.068;5.198;2023-01-04T05:00:46;11.20;99.90
16881;DHT22;8557;52.068;5.198;2023-01-04T05:03:12;11.10;99.90
16881;DHT22;8557;52.068;5.198;2023-01-04T05:05:39;11.20;99.90
16881;DHT22;8557;52.068;5.198;2023-01-04T05:08:06;11.20;99.90
16881;DHT22;8557;52.068;5.198;2023-01-04T05:10:33;11.20;99.90
16881;DHT22;8557;52.068;5.198;2023-01-04T05:13:01;11.20;99.90
16881;DHT22;8557;52.068;5.198;2023-01-04T05:15:28;11.20;99.90
16881;DHT22;8557;52.068;5.198;2023-01-04T05:17:56;11.10;99.90
16881;DHT22;8557;52.068;5.198;2023-01-04T05:20:23;11.20;99.90
16881;DHT22;8557;52.068;5.198;2023-01-04T05:22:50;11.10;99.90
16881;DHT22;8557;52.068;5.198;2023-01-04T05:25:17;11.10;99.90
16881;DHT22;8557;52.068;5.198;2023-01-04T05:27:44;11.00;99.90
16881;DHT22;8557;52.068;5.198;2023-01-04T05:30:14;11.00;99.90
16881;DHT22;8557;52.068;5.198;2023-01-04T05:32:59;11.10;99.90
16881;DHT22;8557;52.068;5.198;2023-01-04T05:35:26;11.10;99.90
16881;DHT22;8557;52.068;5.198;2023-01-04T05:37:53;11.10;99.90
16881;DHT22;8557;52.068;5.198;2023-01-04T05:40:20;11.10;99.90
16881;DHT22;8557;52.068;5.198;2023-01-04T05:42:48;11.10;99.90
16881;DHT22;8557;52.068;5.198;2023-01-04T05:45:16;11.10;99.90
16881;DHT22;8557;52.068;5.198;2023-01-04T05:47:44;11.10;99.90
16881;DHT22;8557;52.068;5.198;2023-01-04T05:50:10;11.10;99.90
16881;DHT22;8557;52.068;5.198;2023-01-04T05:52:37;11.10;99.90
16881;DHT22;8557;52.068;5.198;2023-01-04T05:55:04;11.00;99.90
16881;DHT22;8557;52.068;5.198;2023-01-04T05:57:31;11.10;99.90
16881;DHT22;8557;52.068;5.198;2023-01-04T05:59:58;11.10;99.90
16881;DHT22;8557;52.068;5.198;2023-01-04T06:02:28;11.10;99.90
16881;DHT22;8557;52.068;5.198;2023-01-04T06:04:55;11.20;99.90
16881;DHT22;8557;52.068;5.198;2023-01-04T06:07:22;11.20;99.90
16881;DHT22;8557;52.068;5.198;2023-01-04T06:09:49;11.20;99.90
16881;DHT22;8557;52.068;5.198;2023-01-04T06:12:16;11.20;99.90
16881;DHT22;8557;52.068;5.198;2023-01-04T06:14:43;11.30;99.90
16881;DHT22;8557;52.068;5.198;2023-01-04T06:17:10;11.20;99.90
16881;DHT22;8557;52.068;5.198;2023-01-04T06:19:38;11.20;99.90
16881;DHT22;8557;52.068;5.198;2023-01-04T06:22:07;11.20;99.90
16881;DHT22;8557;52.068;5.198;2023-01-04T06:24:34;11.30;99.90
16881;DHT22;8557;52.068;5.198;2023-01-04T06:27:01;11.30;99.90
16881;DHT22;8557;52.068;5.198;2023-01-04T06:29:28;11.20;99.90
16881;DHT22;8557;52.068;5.198;2023-01-04T06:31:55;11.20;99.90
16881;DHT22;8557;52.068;5.198;2023-01-04T06:34:21;11.30;99.90
16881;DHT22;8557;52.068;5.198;2023-01-04T06:36:50;11.30;99.90
16881;DHT22;8557;52.068;5.198;2023-01-04T06:39:16;11.40;99.90
16881;DHT22;8557;52.068;5.198;2023-01-04T06:41:43;11.40;99.90
16881;DHT22;8557;52.068;5.198;2023-01-04T06:44:10;11.30;99.90
16881;DHT22;8557;52.068;5.198;2023-01-04T06:46:37;11.40;99.90
16881;DHT22;8557;52.068;5.198;2023-01-04T06:49:05;11.50;99.90
16881;DHT22;8557;52.068;5.198;2023-01-04T06:51:32;11.50;99.90
16881;DHT22;8557;52.068;5.198;2023-01-04T06:54:00;11.50;99.90
16881;DHT22;8557;52.068;5.198;2023-01-04T06:56:27;11.50;99.90
16881;DHT22;8557;52.068;5.198;2023-01-04T06:58:55;11.50;99.90
16881;DHT22;8557;52.068;5.198;2023-01-04T07:01:22;11.50;99.90
16881;DHT22;8557;52.068;5.198;2023-01-04T07:03:48;11.50;99.90
16881;DHT22;8557;52.068;5.198;2023-01-04T07:06:15;11.50;99.90
16881;DHT22;8557;52.068;5.198;2023-01-04T07:08:42;11.50;99.90
16881;DHT22;8557;52.068;5.198;2023-01-04T07:11:10;11.50;99.90
16881;DHT22;8557;52.068;5.198;2023-01-04T07:13:37;11.60;99.90
16881;DHT22;8557;52.068;5.198;2023-01-04T07:16:04;11.60;99.90
16881;DHT22;8557;52.068;5.198;2023-01-04T07:18:31;11.50;99.90
16881;DHT22;8557;52.068;5.198;2023-01-04T07:20:58;11.60;99.90
16881;DHT22;8557;52.068;5.198;2023-01-04T07:23:24;11.60;99.90
16881;DHT22;8557;52.068;5.198;2023-01-04T07:25:51;11.60;99.90
16881;DHT22;8557;52.068;5.198;2023-01-04T07:28:19;11.60;99.90
16881;DHT22;8557;52.068;5.198;2023-01-04T07:31:03;11.60;99.90
16881;DHT22;8557;52.068;5.198;2023-01-04T07:33:30;11.50;99.90
16881;DHT22;8557;52.068;5.198;2023-01-04T07:36:01;11.60;99.90
16881;DHT22;8557;52.068;5.198;2023-01-04T07:38:27;11.60;99.90
16881;DHT22;8557;52.068;5.198;2023-01-04T07:40:54;11.60;99.90
16881;DHT22;8557;52.068;5.198;2023-01-04T07:43:22;11.60;99.90
16881;DHT22;8557;52.068;5.198;2023-01-04T07:45:49;11.60;99.90
16881;DHT22;8557;52.068;5.198;2023-01-04T07:48:16;11.50;99.90
16881;DHT22;8557;52.068;5.198;2023-01-04T07:50:44;11.50;99.90
16881;DHT22;8557;52.068;5.198;2023-01-04T07:53:11;11.60;99.90
16881;DHT22;8557;52.068;5.198;2023-01-04T07:55:38;11.50;99.90
16881;DHT22;8557;52.068;5.198;2023-01-04T07:58:05;11.60;99.90
16881;DHT22;8557;52.068;5.198;2023-01-04T08:00:33;11.60;99.90
16881;DHT22;8557;52.068;5.198;2023-01-04T08:03:00;11.60;99.90
16881;DHT22;8557;52.068;5.198;2023-01-04T08:05:27;11.50;99.90
16881;DHT22;8557;52.068;5.198;2023-01-04T08:07:53;11.50;99.90
16881;DHT22;8557;52.068;5.198;2023-01-04T08:10:20;11.60;99.90
16881;DHT22;8557;52.068;5.198;2023-01-04T08:12:47;11.60;99.90
16881;DHT22;8557;52.068;5.198;2023-01-04T08:15:14;11.50;99.90
16881;DHT22;8557;52.068;5.198;2023-01-04T08:17:42;11.50;99.90
16881;DHT22;8557;52.068;5.198;2023-01-04T08:20:09;11.60;99.90
16881;DHT22;8557;52.068;5.198;2023-01-04T08:22:36;11.50;99.90
16881;DHT22;8557;52.068;5.198;2023-01-04T08:25:03;11.60;99.90
16881;DHT22;8557;52.068;5.198;2023-01-04T08:27:32;11.60;99.90
16881;DHT22;8557;52.068;5.198;2023-01-04T08:29:59;11.60;99.90
16881;DHT22;8557;52.068;5.198;2023-01-04T08:32:26;11.60;99.90
16881;DHT22;8557;52.068;5.198;2023-01-04T08:34:54;11.60;99.90
16881;DHT22;8557;52.068;5.198;2023-01-04T08:37:21;11.70;99.90
16881;DHT22;8557;52.068;5.198;2023-01-04T08:39:48;11.70;99.90
16881;DHT22;8557;52.068;5.198;2023-01-04T08:42:15;11.70;99.90
16881;DHT22;8557;52.068;5.198;2023-01-04T08:44:42;11.70;99.90
16881;DHT22;8557;52.068;5.198;2023-01-04T08:47:08;11.70;99.90
16881;DHT22;8557;52.068;5.198;2023-01-04T08:49:35;11.70;99.90
16881;DHT22;8557;52.068;5.198;2023-01-04T08:52:04;11.70;99.90
16881;DHT22;8557;52.068;5.198;2023-01-04T08:54:31;11.70;99.90
16881;DHT22;8557;52.068;5.198;2023-01-04T08:56:58;11.70;99.90
16881;DHT22;8557;52.068;5.198;2023-01-04T08:59:25;11.60;99.90
16881;DHT22;8557;52.068;5.198;2023-01-04T09:01:52;11.70;99.90
16881;DHT22;8557;52.068;5.198;2023-01-04T09:04:19;11.70;99.90
16881;DHT22;8557;52.068;5.198;2023-01-04T09:06:46;11.70;99.90
16881;DHT22;8557;52.068;5.198;2023-01-04T09:09:14;11.80;99.90
16881;DHT22;8557;52.068;5.198;2023-01-04T09:11:41;11.80;99.90
16881;DHT22;8557;52.068;5.198;2023-01-04T09:14:09;11.80;99.90
16881;DHT22;8557;52.068;5.198;2023-01-04T09:16:38;11.80;99.90
16881;DHT22;8557;52.068;5.198;2023-01-04T09:19:05;11.80;99.90
16881;DHT22;8557;52.068;5.198;2023-01-04T09:21:33;11.80;99.90
16881;DHT22;8557;52.068;5.198;2023-01-04T09:24:00;11.80;99.90
16881;DHT22;8557;52.068;5.198;2023-01-04T09:26:28;11.80;99.90
16881;DHT22;8557;52.068;5.198;2023-01-04T09:28:56;11.80;99.90
16881;DHT22;8557;52.068;5.198;2023-01-04T09:31:24;11.80;99.90
16881;DHT22;8557;52.068;5.198;2023-01-04T09:33:52;11.80;99.90
16881;DHT22;8557;52.068;5.198;2023-01-04T09:36:19;11.80;99.90
16881;DHT22;8557;52.068;5.198;2023-01-04T09:38:47;11.80;99.90
16881;DHT22;8557;52.068;5.198;2023-01-04T09:41:20;11.90;99.90
16881;DHT22;8557;52.068;5.198;2023-01-04T09:43:51;11.80;99.90
16881;DHT22;8557;52.068;5.198;2023-01-04T09:46:25;11.80;99.90
16881;DHT22;8557;52.068;5.198;2023-01-04T09:48:57;11.90;99.90
16881;DHT22;8557;52.068;5.198;2023-01-04T09:51:32;11.90;99.90
16881;DHT22;8557;52.068;5.198;2023-01-04T09:54:02;11.90;99.90
16881;DHT22;8557;52.068;5.198;2023-01-04T09:56:32;11.90;99.90
16881;DHT22;8557;52.068;5.198;2023-01-04T09:59:05;12.00;99.90
16881;DHT22;8557;52.068;5.198;2023-01-04T10:01:40;11.90;99.90
16881;DHT22;8557;52.068;5.198;2023-01-04T10:04:14;12.00;99.90
16881;DHT22;8557;52.068;5.198;2023-01-04T10:06:43;11.90;99.90
16881;DHT22;8557;52.068;5.198;2023-01-04T10:09:13;12.00;99.90
16881;DHT22;8557;52.068;5.198;2023-01-04T10:11:49;12.00;99.90
16881;DHT22;8557;52.068;5.198;2023-01-04T10:14:34;12.00;99.90
16881;DHT22;8557;52.068;5.198;2023-01-04T10:17:13;11.90;99.90
16881;DHT22;8557;52.068;5.198;2023-01-04T10:19:57;11.90;99.90
16881;DHT22;8557;52.068;5.198;2023-01-04T10:22:34;12.40;99.90
16881;DHT22;8557;52.068;5.198;2023-01-04T10:25:17;12.00;99.90
16881;DHT22;8557;52.068;5.198;2023-01-04T10:27:51;11.90;99.90
16881;DHT22;8557;52.068;5.198;2023-01-04T10:30:28;11.90;99.90
16881;DHT22;8557;52.068;5.198;2023-01-04T10:33:03;11.90;99.90
16881;DHT22;8557;52.068;5.198;2023-01-04T10:35:34;12.00;99.90
16881;DHT22;8557;52.068;5.198;2023-01-04T10:38:07;12.00;99.90
16881;DHT22;8557;52.068;5.198;2023-01-04T10:40:37;12.00;99.90
16881;DHT22;8557;52.068;5.198;2023-01-04T10:43:13;12.00;99.90
16881;DHT22;8557;52.068;5.198;2023-01-04T10:45:48;12.00;99.90
16881;DHT22;8557;52.068;5.198;2023-01-04T10:48:21;12.00;99.90
16881;DHT22;8557;52.068;5.198;2023-01-04T10:50:54;12.00;99.90
16881;DHT22;8557;52.068;5.198;2023-01-04T10:53:26;12.00;99.90
16881;DHT22;8557;52.068;5.198;2023-01-04T10:55:58;12.00;99.90
16881;DHT22;8557;52.068;5.198;2023-01-04T10:58:33;12.00;99.90
16881;DHT22;8557;52.068;5.198;2023-01-04T11:01:03;12.00;99.90
16881;DHT22;8557;52.068;5.198;2023-01-04T11:03:36;12.00;99.90
16881;DHT22;8557;52.068;5.198;2023-01-04T11:06:09;12.00;99.90
16881;DHT22;8557;52.068;5.198;2023-01-04T11:08:44;12.10;99.90
16881;DHT22;8557;52.068;5.198;2023-01-04T11:11:16;12.10;99.90
16881;DHT22;8557;52.068;5.198;2023-01-04T11:13:44;12.10;99.90
16881;DHT22;8557;52.068;5.198;2023-01-04T11:16:12;12.10;99.90
16881;DHT22;8557;52.068;5.198;2023-01-04T11:18:40;12.10;99.90
16881;DHT22;8557;52.068;5.198;2023-01-04T11:21:11;12.10;99.90
16881;DHT22;8557;52.068;5.198;2023-01-04T11:23:38;12.10;99.90
16881;DHT22;8557;52.068;5.198;2023-01-04T11:26:08;12.10;99.90
16881;DHT22;8557;52.068;5.198;2023-01-04T11:28:41;12.10;99.90
16881;DHT22;8557;52.068;5.198;2023-01-04T11:31:17;12.10;99.90
16881;DHT22;8557;52.068;5.198;2023-01-04T11:33:51;12.20;99.90
16881;DHT22;8557;52.068;5.198;2023-01-04T11:36:32;12.20;99.90
16881;DHT22;8557;52.068;5.198;2023-01-04T11:39:04;12.20;99.90
16881;DHT22;8557;52.068;5.198;2023-01-04T11:41:31;12.20;99.90
16881;DHT22;8557;52.068;5.198;2023-01-04T11:43:59;12.30;99.90
16881;DHT22;8557;52.068;5.198;2023-01-04T11:46:29;12.30;99.90
16881;DHT22;8557;52.068;5.198;2023-01-04T11:48:56;12.40;99.90
16881;DHT22;8557;52.068;5.198;2023-01-04T11:51:34;12.50;99.90
16881;DHT22;8557;52.068;5.198;2023-01-04T11:54:06;12.50;99.90
16881;DHT22;8557;52.068;5.198;2023-01-04T11:56:57;12.50;99.90
16881;DHT22;8557;52.068;5.198;2023-01-04T11:59:24;12.50;99.90
16881;DHT22;8557;52.068;5.198;2023-01-04T12:02:14;12.60;99.90
16881;DHT22;8557;52.068;5.198;2023-01-04T12:04:43;12.60;99.90
16881;DHT22;8557;52.068;5.198;2023-01-04T12:07:17;12.60;99.90
16881;DHT22;8557;52.068;5.198;2023-01-04T12:09:49;12.60;99.90
16881;DHT22;8557;52.068;5.198;2023-01-04T12:12:16;12.70;99.90
16881;DHT22;8557;52.068;5.198;2023-01-04T12:14:47;12.70;99.90
16881;DHT22;8557;52.068;5.198;2023-01-04T12:17:20;12.70;99.90
16881;DHT22;8557;52.068;5.198;2023-01-04T12:19:49;12.80;99.90
16881;DHT22;8557;52.068;5.198;2023-01-04T12:22:21;12.90;99.90
16881;DHT22;8557;52.068;5.198;2023-01-04T12:24:52;12.90;99.90
16881;DHT22;8557;52.068;5.198;2023-01-04T12:27:19;12.90;99.90
16881;DHT22;8557;52.068;5.198;2023-01-04T12:29:55;13.00;99.90
16881;DHT22;8557;52.068;5.198;2023-01-04T12:32:54;13.00;99.90
16881;DHT22;8557;52.068;5.198;2023-01-04T12:42:15;13.00;99.90
16881;DHT22;8557;52.068;5.198;2023-01-04T12:45:13;13.00;99.90
16881;DHT22;8557;52.068;5.198;2023-01-04T12:47:45;13.00;99.90
16881;DHT22;8557;52.068;5.198;2023-01-04T12:50:31;13.00;99.90
16881;DHT22;8557;52.068;5.198;2023-01-04T12:53:48;12.90;99.90
16881;DHT22;8557;52.068;5.198;2023-01-04T12:56:15;13.00;99.90
16881;DHT22;8557;52.068;5.198;2023-01-04T12:59:05;13.00;99.90
16881;DHT22;8557;52.068;5.198;2023-01-04T13:01:32;13.00;99.90
16881;DHT22;8557;52.068;5.198;2023-01-04T13:04:01;13.00;99.90
16881;DHT22;8557;52.068;5.198;2023-01-04T13:06:32;13.00;99.90
16881;DHT22;8557;52.068;5.198;2023-01-04T13:09:09;13.00;99.90
16881;DHT22;8557;52.068;5.198;2023-01-04T13:12:06;13.00;99.90
16881;DHT22;8557;52.068;5.198;2023-01-04T13:14:38;13.00;99.90
16881;DHT22;8557;52.068;5.198;2023-01-04T13:17:14;13.00;99.90
16881;DHT22;8557;52.068;5.198;2023-01-04T13:19:42;13.00;99.90
16881;DHT22;8557;52.068;5.198;2023-01-04T13:22:21;13.00;99.90
16881;DHT22;8557;52.068;5.198;2023-01-04T13:24:51;13.00;99.90
16881;DHT22;8557;52.068;5.198;2023-01-04T13:27:20;13.00;99.90
16881;DHT22;8557;52.068;5.198;2023-01-04T13:29:48;12.90;99.90
16881;DHT22;8557;52.068;5.198;2023-01-04T13:32:21;12.90;99.90
16881;DHT22;8557;52.068;5.198;2023-01-04T13:34:53;12.90;99.90
16881;DHT22;8557;52.068;5.198;2023-01-04T13:37:30;12.90;99.90
16881;DHT22;8557;52.068;5.198;2023-01-04T13:40:24;12.90;99.90
16881;DHT22;8557;52.068;5.198;2023-01-04T13:43:09;12.90;99.90
16881;DHT22;8557;52.068;5.198;2023-01-04T13:45:50;12.90;99.90
16881;DHT22;8557;52.068;5.198;2023-01-04T13:48:21;12.90;99.90
16881;DHT22;8557;52.068;5.198;2023-01-04T13:50:59;13.00;99.90
16881;DHT22;8557;52.068;5.198;2023-01-04T13:53:28;12.90;99.90
16881;DHT22;8557;52.068;5.198;2023-01-04T13:55:58;12.90;99.90
16881;DHT22;8557;52.068;5.198;2023-01-04T13:58:27;12.90;99.90
16881;DHT22;8557;52.068;5.198;2023-01-04T14:00:57;12.90;99.90
16881;DHT22;8557;52.068;5.198;2023-01-04T14:03:36;12.90;99.90
16881;DHT22;8557;52.068;5.198;2023-01-04T14:06:15;12.90;99.90
16881;DHT22;8557;52.068;5.198;2023-01-04T14:08:47;12.80;99.90
16881;DHT22;8557;52.068;5.198;2023-01-04T14:11:20;12.80;99.90
16881;DHT22;8557;52.068;5.198;2023-01-04T14:14:28;12.80;99.90
16881;DHT22;8557;52.068;5.198;2023-01-04T14:17:28;12.80;99.90
16881;DHT22;8557;52.068;5.198;2023-01-04T14:19:57;12.80;99.90
16881;DHT22;8557;52.068;5.198;2023-01-04T14:28:32;12.70;99.90
16881;DHT22;8557;52.068;5.198;2023-01-04T14:33:55;12.70;99.90
16881;DHT22;8557;52.068;5.198;2023-01-04T14:36:23;12.70;99.90
16881;DHT22;8557;52.068;5.198;2023-01-04T14:38:58;12.70;99.90
16881;DHT22;8557;52.068;5.198;2023-01-04T14:41:29;12.70;99.90
16881;DHT22;8557;52.068;5.198;2023-01-04T14:44:13;12.70;99.90
16881;DHT22;8557;52.068;5.198;2023-01-04T14:46:40;12.70;99.90
16881;DHT22;8557;52.068;5.198;2023-01-04T14:49:10;12.70;99.90
16881;DHT22;8557;52.068;5.198;2023-01-04T14:51:39;12.70;99.90
16881;DHT22;8557;52.068;5.198;2023-01-04T14:54:08;12.70;99.90
16881;DHT22;8557;52.068;5.198;2023-01-04T14:56:35;12.60;99.90
16881;DHT22;8557;52.068;5.198;2023-01-04T14:59:02;12.60;99.90
16881;DHT22;8557;52.068;5.198;2023-01-04T15:01:30;12.70;99.90
16881;DHT22;8557;52.068;5.198;2023-01-04T15:03:57;12.60;99.90
16881;DHT22;8557;52.068;5.198;2023-01-04T15:06:24;12.70;99.90
16881;DHT22;8557;52.068;5.198;2023-01-04T15:08:51;12.60;99.90
16881;DHT22;8557;52.068;5.198;2023-01-04T15:11:18;12.60;99.90
16881;DHT22;8557;52.068;5.198;2023-01-04T15:13:45;12.60;99.90
16881;DHT22;8557;52.068;5.198;2023-01-04T15:16:13;12.60;99.90
16881;DHT22;8557;52.068;5.198;2023-01-04T15:18:43;12.60;99.90
16881;DHT22;8557;52.068;5.198;2023-01-04T15:21:11;12.60;99.90
16881;DHT22;8557;52.068;5.198;2023-01-04T15:23:38;12.60;99.90
16881;DHT22;8557;52.068;5.198;2023-01-04T15:26:07;12.60;99.90
16881;DHT22;8557;52.068;5.198;2023-01-04T15:28:34;12.60;99.90
16881;DHT22;8557;52.068;5.198;2023-01-04T15:31:05;12.60;99.90
16881;DHT22;8557;52.068;5.198;2023-01-04T15:33:32;12.60;99.90
16881;DHT22;8557;52.068;5.198;2023-01-04T15:36:02;12.50;99.90
16881;DHT22;8557;52.068;5.198;2023-01-04T15:38:29;12.40;99.90
16881;DHT22;8557;52.068;5.198;2023-01-04T15:41:01;12.50;99.90
16881;DHT22;8557;52.068;5.198;2023-01-04T15:43:28;12.50;99.90
16881;DHT22;8557;52.068;5.198;2023-01-04T15:45:54;12.50;99.90
16881;DHT22;8557;52.068;5.198;2023-01-04T15:48:20;12.40;99.90
16881;DHT22;8557;52.068;5.198;2023-01-04T15:50:47;12.50;99.90
16881;DHT22;8557;52.068;5.198;2023-01-04T15:53:15;12.50;99.90
16881;DHT22;8557;52.068;5.198;2023-01-04T15:55:42;12.50;99.90
16881;DHT22;8557;52.068;5.198;2023-01-04T15:58:09;12.40;99.90
16881;DHT22;8557;52.068;5.198;2023-01-04T16:00:36;12.40;99.90
16881;DHT22;8557;52.068;5.198;2023-01-04T16:03:04;12.30;99.90
16881;DHT22;8557;52.068;5.198;2023-01-04T16:05:31;12.30;99.90
16881;DHT22;8557;52.068;5.198;2023-01-04T16:07:58;12.30;99.90
16881;DHT22;8557;52.068;5.198;2023-01-04T16:10:27;12.30;99.90
16881;DHT22;8557;52.068;5.198;2023-01-04T16:12:53;12.30;99.90
16881;DHT22;8557;52.068;5.198;2023-01-04T16:15:21;12.30;99.90
16881;DHT22;8557;52.068;5.198;2023-01-04T16:17:47;12.30;99.90
16881;DHT22;8557;52.068;5.198;2023-01-04T16:20:16;12.20;99.90
16881;DHT22;8557;52.068;5.198;2023-01-04T16:22:43;12.20;99.90
16881;DHT22;8557;52.068;5.198;2023-01-04T16:25:11;12.30;99.90
16881;DHT22;8557;52.068;5.198;2023-01-04T16:27:39;12.20;99.90
16881;DHT22;8557;52.068;5.198;2023-01-04T16:30:09;12.30;99.90
16881;DHT22;8557;52.068;5.198;2023-01-04T16:32:39;12.30;99.90